Time;durP1;ratioP1;P1;durP2;ratioP2;P2;SDS_P1;SDS_P2;PMS_P1;PMS_P2;Temp;Humidity;BMP_temperature;BMP_pressure;BME280_temperature;BME280_humidity;BME280_pressure;Samples;Min_cycle;Max_cycle;Signal;HPM_P1;HPM_P2
2023/12/09 00:01:22;;;;;;;48.95;23.65;;;7.70;99.90;;;;;;5112961;28;20492;-66
2023/12/09 00:03:48;;;;;;;57.35;23.33;;;7.70;99.90;;;;;;5111995;28;20035;-65
2023/12/09 00:06:14;;;;;;;44.45;21.80;;;7.70;99.90;;;;;;5111614;28;20374;-66
2023/12/09 00:08:39;;;;;;;53.90;22.77;;;7.60;99.90;;;;;;5113838;28;20028;-66
2023/12/09 00:11:05;;;;;;;52.80;21.70;;;7.60;99.90;;;;;;5114244;28;20485;-66
2023/12/09 00:13:32;;;;;;;45.35;19.52;;;7.70;99.90;;;;;;5111546;28;20044;-66
2023/12/09 00:15:57;;;;;;;49.47;21.80;;;7.60;99.90;;;;;;5112666;28;20149;-66
2023/12/09 00:18:23;;;;;;;50.17;22.50;;;7.70;99.90;;;;;;5112487;28;20126;-66
2023/12/09 00:20:49;;;;;;;52.75;21.88;;;7.70;99.90;;;;;;5111501;28;20040;-66
2023/12/09 00:23:15;;;;;;;42.42;19.13;;;7.60;99.90;;;;;;5112302;28;20077;-66
2023/12/09 00:25:41;;;;;;;47.20;20.08;;;7.70;99.90;;;;;;5112566;28;20494;-66
2023/12/09 00:28:07;;;;;;;47.35;20.75;;;7.70;99.90;;;;;;5112236;28;20082;-65
2023/12/09 00:30:32;;;;;;;40.88;19.80;;;7.80;99.90;;;;;;5112244;28;20377;-66
2023/12/09 00:32:58;;;;;;;50.45;20.92;;;7.70;99.90;;;;;;5094744;28;20409;-66
2023/12/09 00:35:23;;;;;;;45.40;18.10;;;7.80;99.90;;;;;;5111652;28;20042;-66
2023/12/09 00:37:50;;;;;;;50.28;21.10;;;7.80;99.90;;;;;;5095150;28;20047;-65
2023/12/09 00:40:16;;;;;;;55.00;21.67;;;7.90;99.90;;;;;;5111352;28;20629;-66
2023/12/09 00:42:42;;;;;;;54.13;21.48;;;7.70;99.90;;;;;;5112233;28;20096;-66
2023/12/09 00:45:08;;;;;;;52.90;22.45;;;7.80;99.90;;;;;;5111551;28;20043;-66
2023/12/09 00:47:34;;;;;;;50.75;20.33;;;7.80;99.90;;;;;;5111348;28;20101;-67
2023/12/09 00:50:00;;;;;;;48.72;19.38;;;7.80;99.90;;;;;;5112506;28;20083;-66
2023/12/09 00:52:26;;;;;;;47.03;19.15;;;7.80;99.90;;;;;;5111556;28;20040;-66
2023/12/09 00:54:51;;;;;;;53.50;19.50;;;7.70;99.90;;;;;;5110985;28;20065;-66
2023/12/09 00:57:17;;;;;;;64.53;21.27;;;7.70;99.90;;;;;;5111846;28;20040;-66
2023/12/09 00:59:42;;;;;;;47.92;20.33;;;7.80;99.90;;;;;;5111531;28;20054;-66
2023/12/09 01:02:08;;;;;;;48.08;21.83;;;7.70;99.90;;;;;;5111034;28;20071;-66
2023/12/09 01:04:34;;;;;;;46.67;20.67;;;7.80;99.90;;;;;;5111765;28;20499;-66
2023/12/09 01:07:00;;;;;;;51.92;22.05;;;7.70;99.90;;;;;;5111823;28;20051;-66
2023/12/09 01:09:25;;;;;;;49.65;20.58;;;7.80;99.90;;;;;;5110955;28;20040;-66
2023/12/09 01:11:51;;;;;;;49.55;20.33;;;7.70;99.90;;;;;;5094105;28;20091;-66
2023/12/09 01:14:17;;;;;;;47.15;21.05;;;7.70;99.90;;;;;;5111541;28;20043;-66
2023/12/09 01:16:42;;;;;;;52.22;21.65;;;7.70;99.90;;;;;;5110685;28;20381;-66
2023/12/09 01:19:08;;;;;;;53.13;22.83;;;7.70;99.90;;;;;;5111284;28;20058;-66
2023/12/09 01:21:34;;;;;;;35.95;20.40;;;7.70;99.90;;;;;;5111167;28;20081;-66
2023/12/09 01:24:00;;;;;;;39.92;20.83;;;7.60;99.90;;;;;;5111086;28;20058;-66
2023/12/09 01:26:25;;;;;;;48.00;20.70;;;7.60;99.90;;;;;;5111406;28;20043;-66
2023/12/09 01:28:51;;;;;;;41.22;19.70;;;7.70;99.90;;;;;;5111371;28;20039;-66
2023/12/09 01:31:17;;;;;;;43.60;19.55;;;7.70;99.90;;;;;;5110429;28;20042;-66
2023/12/09 01:33:42;;;;;;;44.15;18.73;;;7.60;99.90;;;;;;5094241;28;20039;-66
2023/12/09 01:36:08;;;;;;;32.78;16.67;;;7.60;99.90;;;;;;5111307;28;20042;-66
2023/12/09 01:38:35;;;;;;;50.33;18.60;;;7.70;99.90;;;;;;5093569;28;20043;-66
2023/12/09 01:41:00;;;;;;;36.67;16.73;;;7.70;99.90;;;;;;5110868;28;20047;-66
2023/12/09 01:43:26;;;;;;;41.33;19.10;;;7.70;99.90;;;;;;5093415;28;20044;-66
2023/12/09 01:45:55;;;;;;;51.85;19.42;;;7.70;99.90;;;;;;5111534;28;20059;-66
2023/12/09 01:48:22;;;;;;;28.65;16.50;;;7.70;99.90;;;;;;5111083;28;20051;-66
2023/12/09 01:50:49;;;;;;;37.67;15.73;;;7.70;99.90;;;;;;5110030;28;20043;-66
2023/12/09 01:53:15;;;;;;;34.63;17.48;;;7.70;99.90;;;;;;5111153;28;20097;-66
2023/12/09 01:55:42;;;;;;;38.67;16.55;;;7.70;99.90;;;;;;5094366;28;20089;-66
2023/12/09 01:58:09;;;;;;;41.78;16.80;;;7.70;99.90;;;;;;5112841;28;20373;-66
2023/12/09 02:00:37;;;;;;;36.13;17.50;;;7.60;99.90;;;;;;5114696;28;20042;-66
2023/12/09 02:03:02;;;;;;;30.85;16.77;;;7.70;99.90;;;;;;5114455;28;20544;-66
2023/12/09 02:05:28;;;;;;;35.08;16.17;;;7.50;99.90;;;;;;5113771;28;20046;-66
2023/12/09 02:07:54;;;;;;;39.65;16.13;;;7.60;99.90;;;;;;5097158;28;20468;-66
2023/12/09 02:10:19;;;;;;;32.33;15.63;;;7.50;99.90;;;;;;5114218;28;20043;-66
2023/12/09 02:13:01;;;;;;;33.05;14.32;;;7.70;99.90;;;;;;5111254;28;20365;-66
2023/12/09 02:15:38;;;;;;;39.88;15.82;;;7.60;99.90;;;;;;5131287;28;20517;-66
2023/12/09 02:18:05;;;;;;;42.22;16.85;;;7.60;99.90;;;;;;5131505;28;20511;-66
2023/12/09 02:20:31;;;;;;;38.22;17.90;;;7.50;99.90;;;;;;5129882;28;20544;-66
2023/12/09 02:23:11;;;;;;;32.88;14.60;;;7.50;99.90;;;;;;5114410;28;20039;-66
2023/12/09 02:25:37;;;;;;;51.13;17.98;;;7.60;99.90;;;;;;5130833;28;20130;-67
2023/12/09 02:28:19;;;;;;;35.17;15.55;;;7.50;99.90;;;;;;5133213;27;20050;-66
2023/12/09 02:31:03;;;;;;;37.95;16.20;;;7.50;99.90;;;;;;5135258;27;20043;-66
2023/12/09 02:33:31;;;;;;;35.80;15.13;;;7.50;99.90;;;;;;5134315;27;20372;-66
2023/12/09 02:36:01;;;;;;;29.90;14.07;;;7.60;99.90;;;;;;5135384;27;20042;-66
2023/12/09 02:38:29;;;;;;;34.28;16.38;;;7.50;99.90;;;;;;5134623;27;20511;-65
2023/12/09 02:40:57;;;;;;;37.60;16.02;;;7.50;99.90;;;;;;5127442;27;20053;-66
2023/12/09 02:43:22;;;;;;;33.42;15.77;;;7.60;99.90;;;;;;5117858;27;20047;-66
2023/12/09 02:45:48;;;;;;;34.78;15.98;;;7.50;99.90;;;;;;5104895;27;20548;-65
2023/12/09 02:48:14;;;;;;;37.58;14.73;;;7.50;99.90;;;;;;5116984;27;20043;-66
2023/12/09 02:50:40;;;;;;;29.17;14.50;;;7.50;99.90;;;;;;5117758;27;20042;-66
2023/12/09 02:53:05;;;;;;;32.17;14.30;;;7.60;99.90;;;;;;5117780;27;20039;-66
2023/12/09 02:55:31;;;;;;;32.38;14.48;;;7.60;99.90;;;;;;5116659;27;20034;-66
2023/12/09 02:57:57;;;;;;;40.28;15.93;;;7.50;99.90;;;;;;5117974;27;20496;-66
2023/12/09 03:00:22;;;;;;;35.28;14.85;;;7.60;99.90;;;;;;5117807;27;20072;-65
2023/12/09 03:02:48;;;;;;;35.53;15.23;;;7.50;99.90;;;;;;5116777;27;20047;-65
2023/12/09 03:05:14;;;;;;;34.47;16.48;;;7.50;99.90;;;;;;5117348;27;20047;-66
2023/12/09 03:07:39;;;;;;;43.97;15.77;;;7.50;99.90;;;;;;5116511;27;20046;-66
2023/12/09 03:10:05;;;;;;;36.92;14.95;;;7.50;99.90;;;;;;5119171;27;20039;-66
2023/12/09 03:12:31;;;;;;;32.22;14.95;;;7.50;99.90;;;;;;5134301;27;20104;-66
2023/12/09 03:14:57;;;;;;;34.30;15.38;;;7.40;99.90;;;;;;5127642;27;20035;-66
2023/12/09 03:17:22;;;;;;;32.95;16.23;;;7.50;99.90;;;;;;5117011;27;20039;-66
2023/12/09 03:19:48;;;;;;;32.40;16.33;;;7.50;99.90;;;;;;5117417;27;20562;-66
2023/12/09 03:22:14;;;;;;;37.03;15.13;;;7.40;99.90;;;;;;5116043;27;20530;-66
2023/12/09 03:24:42;;;;;;;32.05;15.73;;;7.40;99.90;;;;;;5117151;27;20433;-66
2023/12/09 03:27:08;;;;;;;43.03;15.63;;;7.40;99.90;;;;;;5117527;27;20051;-66
2023/12/09 03:29:35;;;;;;;32.03;15.82;;;7.30;99.90;;;;;;5116294;27;20472;-67
2023/12/09 03:32:01;;;;;;;30.33;15.07;;;7.30;99.90;;;;;;5117218;27;20047;-66
2023/12/09 03:34:27;;;;;;;42.08;16.55;;;7.30;99.90;;;;;;5117129;27;20705;-66
2023/12/09 03:36:53;;;;;;;34.10;15.70;;;7.30;99.90;;;;;;5116257;27;20047;-66
2023/12/09 03:39:19;;;;;;;38.95;16.05;;;7.30;99.90;;;;;;5117258;27;20032;-66
2023/12/09 03:41:44;;;;;;;29.98;14.32;;;7.20;99.90;;;;;;5099766;27;20497;-66
2023/12/09 03:44:10;;;;;;;33.15;14.77;;;7.30;99.90;;;;;;5113840;27;20387;-66
2023/12/09 03:46:35;;;;;;;35.90;16.05;;;7.30;99.90;;;;;;5133698;27;20031;-66
2023/12/09 03:49:01;;;;;;;39.08;15.60;;;7.20;99.90;;;;;;5133985;27;20065;-66
2023/12/09 03:51:27;;;;;;;34.63;14.52;;;7.20;99.90;;;;;;5132723;27;20043;-66
2023/12/09 03:53:53;;;;;;;31.00;14.52;;;7.20;99.90;;;;;;5133757;27;20035;-66
2023/12/09 03:56:20;;;;;;;40.92;16.00;;;7.10;99.90;;;;;;5134003;27;20039;-66
2023/12/09 03:58:46;;;;;;;31.58;14.50;;;7.10;99.90;;;;;;5115971;27;20051;-66
2023/12/09 04:01:11;;;;;;;32.03;14.98;;;7.10;99.90;;;;;;5116697;27;20035;-66
2023/12/09 04:03:37;;;;;;;31.05;15.90;;;7.10;99.90;;;;;;5116501;27;20042;-66
2023/12/09 04:06:04;;;;;;;31.42;14.98;;;7.00;99.90;;;;;;5116794;27;20043;-67
2023/12/09 04:08:29;;;;;;;42.67;17.08;;;7.10;99.90;;;;;;5133256;27;20047;-66
2023/12/09 04:10:55;;;;;;;30.58;14.75;;;7.10;99.90;;;;;;5134584;27;20031;-66
2023/12/09 04:13:21;;;;;;;30.50;14.77;;;7.00;99.90;;;;;;5115894;27;20043;-66
2023/12/09 04:15:47;;;;;;;33.30;15.77;;;7.00;99.90;;;;;;5115928;27;20035;-66
2023/12/09 04:18:12;;;;;;;32.78;15.30;;;7.10;99.90;;;;;;5115402;27;20066;-66
2023/12/09 04:20:38;;;;;;;37.47;18.23;;;7.00;99.90;;;;;;5115989;27;20514;-66
2023/12/09 04:23:04;;;;;;;29.73;15.35;;;7.00;99.90;;;;;;5116294;27;20075;-66
2023/12/09 04:25:31;;;;;;;29.70;15.75;;;7.00;99.90;;;;;;5097853;27;20079;-66
2023/12/09 04:27:56;;;;;;;31.05;15.48;;;7.10;99.90;;;;;;5110855;27;20039;-66
2023/12/09 04:30:22;;;;;;;34.42;16.02;;;7.00;99.90;;;;;;5129996;27;20400;-66
2023/12/09 04:32:48;;;;;;;34.17;15.20;;;7.00;99.90;;;;;;5115064;27;20054;-66
2023/12/09 04:35:14;;;;;;;39.78;16.38;;;7.10;99.90;;;;;;5115751;27;20087;-66
2023/12/09 04:37:40;;;;;;;41.35;16.88;;;7.10;99.90;;;;;;5115736;27;20043;-66
2023/12/09 04:40:10;;;;;;;39.38;16.25;;;7.20;99.90;;;;;;5115020;27;20041;-66
2023/12/09 04:42:39;;;;;;;35.63;14.50;;;7.20;99.90;;;;;;5078079;28;20116;-66
2023/12/09 04:45:06;;;;;;;33.35;17.13;;;7.20;99.90;;;;;;5095434;28;20119;-66
2023/12/09 04:47:33;;;;;;;40.80;15.57;;;7.20;99.90;;;;;;5093873;28;20039;-66
2023/12/09 04:49:59;;;;;;;35.38;17.00;;;7.20;99.90;;;;;;5094925;28;20477;-66
2023/12/09 04:52:25;;;;;;;29.98;15.75;;;7.20;99.90;;;;;;5095416;28;20368;-66
2023/12/09 04:54:51;;;;;;;31.38;16.45;;;7.20;99.90;;;;;;5094056;28;20040;-66
2023/12/09 04:57:17;;;;;;;35.35;16.00;;;7.20;99.90;;;;;;5095280;28;20045;-66
2023/12/09 04:59:43;;;;;;;37.75;17.15;;;7.30;99.90;;;;;;5094737;28;20063;-66
2023/12/09 05:02:09;;;;;;;25.48;13.40;;;7.20;99.90;;;;;;5094141;28;20055;-66
2023/12/09 05:04:35;;;;;;;33.85;15.13;;;7.30;99.90;;;;;;5113368;27;20372;-66
2023/12/09 05:07:01;;;;;;;35.22;15.05;;;7.20;99.90;;;;;;5134121;27;20039;-67
2023/12/09 05:09:26;;;;;;;31.35;15.65;;;7.20;99.90;;;;;;5124549;27;20074;-66
2023/12/09 05:11:52;;;;;;;32.13;15.18;;;7.30;99.90;;;;;;5098040;27;20125;-66
2023/12/09 05:14:17;;;;;;;34.35;15.00;;;7.30;99.90;;;;;;5114583;27;20050;-66
2023/12/09 05:16:43;;;;;;;34.53;16.27;;;7.30;99.90;;;;;;5115060;27;20064;-66
2023/12/09 05:19:09;;;;;;;29.55;15.23;;;7.30;99.90;;;;;;5115221;27;20035;-66
2023/12/09 05:21:34;;;;;;;36.15;16.45;;;7.30;99.90;;;;;;5097341;27;20034;-66
2023/12/09 05:24:00;;;;;;;33.67;16.02;;;7.30;99.90;;;;;;5134060;27;20122;-66
2023/12/09 05:26:30;;;;;;;31.33;14.23;;;7.30;99.90;;;;;;5114681;27;20175;-66
2023/12/09 05:28:57;;;;;;;33.58;16.30;;;7.30;99.90;;;;;;5114231;27;20035;-66
2023/12/09 05:31:24;;;;;;;36.25;15.15;;;7.20;99.90;;;;;;5114909;27;20487;-66
2023/12/09 05:33:50;;;;;;;29.02;15.23;;;7.20;99.90;;;;;;5114669;27;20139;-66
2023/12/09 05:36:16;;;;;;;30.23;13.73;;;7.30;99.90;;;;;;5113989;27;20067;-66
2023/12/09 05:38:42;;;;;;;27.27;14.57;;;7.20;99.90;;;;;;5113429;28;20067;-66
2023/12/09 05:41:09;;;;;;;30.58;14.40;;;7.30;99.90;;;;;;5132055;28;20066;-66
2023/12/09 05:43:39;;;;;;;42.65;14.65;;;7.20;99.90;;;;;;5113692;28;20039;-66
2023/12/09 05:46:05;;;;;;;29.20;14.35;;;7.20;99.90;;;;;;5132174;28;20051;-67
2023/12/09 05:48:34;;;;;;;30.33;14.23;;;7.20;99.90;;;;;;5114407;28;20058;-66
2023/12/09 05:51:01;;;;;;;37.58;14.35;;;7.10;99.90;;;;;;5120534;28;20086;-66
2023/12/09 05:53:26;;;;;;;27.50;13.35;;;7.20;99.90;;;;;;5097628;28;20044;-66
2023/12/09 05:55:52;;;;;;;36.42;13.57;;;7.20;99.90;;;;;;5114871;28;20119;-66
2023/12/09 05:58:18;;;;;;;30.40;13.73;;;7.10;99.90;;;;;;5113951;28;20507;-66
2023/12/09 06:00:44;;;;;;;30.83;13.45;;;7.10;99.90;;;;;;5114571;27;20464;-66
2023/12/09 06:03:10;;;;;;;30.13;14.13;;;7.10;99.90;;;;;;5117506;27;20046;-66
2023/12/09 06:05:35;;;;;;;26.85;12.40;;;7.10;99.90;;;;;;5123599;27;20043;-66
2023/12/09 06:08:01;;;;;;;32.47;14.02;;;7.10;99.90;;;;;;5136055;27;20096;-66
2023/12/09 06:10:26;;;;;;;31.23;11.90;;;7.00;99.90;;;;;;5135868;27;20066;-66
2023/12/09 06:12:52;;;;;;;28.25;13.95;;;7.00;99.90;;;;;;5134999;27;20137;-66
2023/12/09 06:15:18;;;;;;;30.23;13.98;;;7.10;99.90;;;;;;5118528;27;20043;-66
2023/12/09 06:17:44;;;;;;;27.73;13.18;;;7.00;99.90;;;;;;5123897;27;20043;-66
2023/12/09 06:20:09;;;;;;;32.90;13.93;;;7.00;99.90;;;;;;5101250;27;20066;-67
2023/12/09 06:22:35;;;;;;;35.20;14.70;;;7.00;99.90;;;;;;5118340;27;20091;-66
2023/12/09 06:25:01;;;;;;;29.77;12.70;;;7.00;99.90;;;;;;5117711;27;20095;-66
2023/12/09 06:27:26;;;;;;;28.48;12.15;;;7.00;99.90;;;;;;5118190;27;20092;-66
2023/12/09 06:29:52;;;;;;;24.75;12.55;;;6.90;99.90;;;;;;5118325;27;20035;-66
2023/12/09 06:32:18;;;;;;;35.33;13.43;;;7.00;99.90;;;;;;5117301;27;20035;-66
2023/12/09 06:34:44;;;;;;;27.23;11.23;;;6.90;99.90;;;;;;5118181;27;20035;-66
2023/12/09 06:37:09;;;;;;;27.80;11.60;;;7.00;99.90;;;;;;5134873;27;20039;-66
2023/12/09 06:39:35;;;;;;;24.40;13.10;;;7.00;99.90;;;;;;5134788;27;20047;-66
2023/12/09 06:42:01;;;;;;;27.08;10.55;;;6.90;99.90;;;;;;5135531;27;20035;-66
2023/12/09 06:44:27;;;;;;;22.15;11.13;;;7.00;99.90;;;;;;5135011;27;20058;-66
2023/12/09 06:46:53;;;;;;;29.50;12.15;;;7.00;99.90;;;;;;5134181;27;20046;-66
2023/12/09 06:49:18;;;;;;;25.92;10.85;;;7.00;99.90;;;;;;5126098;27;20133;-66
2023/12/09 06:51:45;;;;;;;21.42;11.50;;;7.00;99.90;;;;;;5100771;27;20395;-66
2023/12/09 06:54:11;;;;;;;21.83;10.07;;;6.90;99.90;;;;;;5116848;27;20035;-66
2023/12/09 06:56:37;;;;;;;25.60;10.50;;;7.00;99.90;;;;;;5130547;27;20038;-66
2023/12/09 06:59:03;;;;;;;24.70;10.90;;;7.00;99.90;;;;;;5134704;27;20059;-66
2023/12/09 07:01:29;;;;;;;24.40;10.18;;;7.00;99.90;;;;;;5134516;27;20077;-66
2023/12/09 07:03:55;;;;;;;23.15;9.77;;;6.90;99.90;;;;;;5135136;27;20047;-66
2023/12/09 07:06:26;;;;;;;21.08;10.73;;;7.00;99.90;;;;;;5123871;27;20047;-66
2023/12/09 07:08:58;;;;;;;24.58;10.25;;;7.00;99.90;;;;;;5116814;27;20050;-66
2023/12/09 07:11:24;;;;;;;22.25;10.13;;;6.90;99.90;;;;;;5117319;27;20050;-66
2023/12/09 07:13:50;;;;;;;21.63;10.23;;;6.90;99.90;;;;;;5116079;27;20047;-66
2023/12/09 07:16:16;;;;;;;26.25;9.40;;;6.90;99.90;;;;;;5117163;27;20035;-66
2023/12/09 07:18:46;;;;;;;20.10;9.82;;;6.90;99.90;;;;;;5100179;27;20035;-66
2023/12/09 07:21:15;;;;;;;23.42;9.60;;;6.90;99.90;;;;;;5098966;27;20031;-67
2023/12/09 07:23:42;;;;;;;17.73;8.77;;;6.90;99.90;;;;;;5096465;28;20108;-66
2023/12/09 07:26:08;;;;;;;24.17;10.15;;;6.90;99.90;;;;;;5096882;28;20046;-66
2023/12/09 07:28:35;;;;;;;17.48;8.95;;;6.90;99.90;;;;;;5096025;28;20043;-66
2023/12/09 07:31:01;;;;;;;16.20;7.93;;;7.00;99.90;;;;;;5096933;28;20054;-66
2023/12/09 07:33:27;;;;;;;23.65;9.00;;;7.00;99.90;;;;;;5117335;27;20462;-66
2023/12/09 07:35:53;;;;;;;21.83;9.10;;;6.90;99.90;;;;;;5099351;27;20099;-66
2023/12/09 07:38:18;;;;;;;18.70;9.55;;;7.00;99.90;;;;;;5099688;27;20476;-67
2023/12/09 07:40:44;;;;;;;22.13;8.40;;;6.90;99.90;;;;;;5099707;27;20035;-66
2023/12/09 07:43:10;;;;;;;22.05;9.52;;;7.00;99.90;;;;;;5129341;27;20043;-66
2023/12/09 07:45:36;;;;;;;22.23;10.98;;;6.90;99.90;;;;;;5115696;27;20396;-66
2023/12/09 07:48:03;;;;;;;22.83;9.25;;;7.00;99.90;;;;;;5122962;27;20039;-66
2023/12/09 07:50:32;;;;;;;21.02;10.02;;;6.90;99.90;;;;;;5116050;27;20076;-66
2023/12/09 07:52:59;;;;;;;26.42;10.25;;;6.90;99.90;;;;;;5118940;27;20043;-66
2023/12/09 07:55:24;;;;;;;19.25;8.77;;;7.00;99.90;;;;;;5126223;27;20095;-66
2023/12/09 07:57:50;;;;;;;21.80;10.63;;;6.90;99.90;;;;;;5132699;27;20051;-66
2023/12/09 08:00:17;;;;;;;19.02;8.38;;;6.90;99.90;;;;;;5132835;27;20047;-66
2023/12/09 08:02:43;;;;;;;16.42;8.27;;;7.00;99.90;;;;;;5122175;27;20039;-66
2023/12/09 08:05:09;;;;;;;13.70;6.65;;;6.90;99.90;;;;;;5132839;27;20123;-66
2023/12/09 08:07:35;;;;;;;16.83;6.93;;;6.90;99.90;;;;;;5126530;27;20093;-66
2023/12/09 08:10:01;;;;;;;16.85;7.63;;;7.00;99.90;;;;;;5119597;27;20039;-66
2023/12/09 08:12:27;;;;;;;19.60;9.30;;;6.90;99.90;;;;;;5113250;27;20054;-66
2023/12/09 08:14:52;;;;;;;17.63;8.00;;;7.00;99.90;;;;;;5113639;27;20422;-66
2023/12/09 08:17:18;;;;;;;23.27;9.35;;;7.00;99.90;;;;;;5096182;27;20039;-66
2023/12/09 08:19:43;;;;;;;16.40;8.05;;;7.00;99.90;;;;;;5113270;27;20042;-66
2023/12/09 08:22:09;;;;;;;15.85;7.18;;;7.00;99.90;;;;;;5114559;27;20045;-66
2023/12/09 08:24:35;;;;;;;15.18;6.25;;;7.10;99.90;;;;;;5111738;27;20042;-66
2023/12/09 08:27:00;;;;;;;15.55;6.95;;;7.10;99.90;;;;;;5113820;27;20047;-66
2023/12/09 08:29:26;;;;;;;12.95;5.70;;;7.10;99.90;;;;;;5119901;27;20049;-66
2023/12/09 08:31:52;;;;;;;20.83;7.13;;;7.00;99.90;;;;;;5114112;27;20499;-66
2023/12/09 08:34:18;;;;;;;16.52;6.75;;;7.00;99.90;;;;;;5114407;27;20047;-66
2023/12/09 08:36:44;;;;;;;10.95;6.47;;;7.00;99.90;;;;;;5117986;27;20043;-66
2023/12/09 08:39:14;;;;;;;12.85;5.57;;;7.10;99.90;;;;;;5111660;27;20043;-66
2023/12/09 08:41:39;;;;;;;16.30;5.90;;;7.00;99.90;;;;;;5113273;27;20406;-66
2023/12/09 08:44:06;;;;;;;17.27;6.78;;;7.10;99.90;;;;;;5113129;27;20043;-66
2023/12/09 08:46:32;;;;;;;16.70;5.60;;;7.10;99.90;;;;;;5111991;27;20499;-66
2023/12/09 08:48:57;;;;;;;11.77;5.22;;;7.20;99.90;;;;;;5111521;27;20079;-66
2023/12/09 08:51:24;;;;;;;16.88;7.93;;;7.10;99.90;;;;;;5113565;27;20049;-66
2023/12/09 08:53:50;;;;;;;16.17;5.30;;;7.20;99.90;;;;;;5101226;27;20952;-66
2023/12/09 08:56:16;;;;;;;11.98;5.35;;;7.10;99.90;;;;;;5112152;27;20053;-66
2023/12/09 08:58:41;;;;;;;19.55;5.75;;;7.20;99.90;;;;;;5112681;27;20457;-66
2023/12/09 09:01:08;;;;;;;14.18;5.45;;;7.20;99.90;;;;;;5112264;27;20051;-66
2023/12/09 09:03:33;;;;;;;11.30;4.45;;;7.20;99.90;;;;;;5128648;27;20129;-65
2023/12/09 09:05:59;;;;;;;12.77;5.18;;;7.20;99.90;;;;;;5127953;27;20456;-66
2023/12/09 09:08:25;;;;;;;19.50;5.22;;;7.20;99.90;;;;;;5111476;27;20047;-65
2023/12/09 09:10:51;;;;;;;13.30;5.80;;;7.30;99.90;;;;;;5113446;27;20062;-65
2023/12/09 09:13:16;;;;;;;12.88;5.05;;;7.20;99.90;;;;;;5095665;27;20041;-66
2023/12/09 09:15:42;;;;;;;13.50;5.45;;;7.30;99.90;;;;;;5097796;27;20490;-65
2023/12/09 09:18:08;;;;;;;8.82;4.57;;;7.30;99.90;;;;;;5115182;27;20191;-65
2023/12/09 09:20:34;;;;;;;12.70;4.32;;;7.30;99.90;;;;;;5114158;27;20535;-66
2023/12/09 09:22:59;;;;;;;14.02;6.43;;;7.30;99.90;;;;;;5114720;27;20043;-66
2023/12/09 09:25:25;;;;;;;13.95;5.72;;;7.30;99.90;;;;;;5114744;27;20041;-68
2023/12/09 09:27:51;;;;;;;14.13;6.03;;;7.30;99.90;;;;;;5115194;28;20055;-65
2023/12/09 09:30:20;;;;;;;19.50;4.93;;;7.30;99.90;;;;;;5114719;27;20046;-66
2023/12/09 09:32:46;;;;;;;16.17;5.63;;;7.30;99.90;;;;;;5097347;27;20088;-66
2023/12/09 09:35:12;;;;;;;17.25;5.28;;;7.40;99.90;;;;;;5113613;27;20043;-66
2023/12/09 09:37:38;;;;;;;11.93;5.20;;;7.30;99.90;;;;;;5114787;27;20035;-66
2023/12/09 09:40:05;;;;;;;17.70;5.22;;;7.40;99.90;;;;;;5113985;28;20043;-66
2023/12/09 09:42:36;;;;;;;12.38;5.28;;;7.40;99.90;;;;;;5113894;28;20050;-66
2023/12/09 09:45:25;;;;;;;13.55;4.38;;;7.40;99.90;;;;;;5114835;28;20092;-67
2023/12/09 09:47:53;;;;;;;15.63;5.25;;;7.40;99.90;;;;;;5098529;28;20110;-66
2023/12/09 09:50:28;;;;;;;14.63;4.93;;;7.40;99.90;;;;;;5129244;28;20452;-66
2023/12/09 09:52:55;;;;;;;14.65;4.70;;;7.40;99.90;;;;;;5114449;28;20121;-66
2023/12/09 09:55:22;;;;;;;11.57;5.43;;;7.30;99.90;;;;;;5131092;28;20069;-66
2023/12/09 09:57:49;;;;;;;14.40;4.93;;;7.40;99.90;;;;;;5113657;28;20499;-66
2023/12/09 10:00:16;;;;;;;15.35;5.57;;;7.40;99.90;;;;;;5114224;28;20055;-65
2023/12/09 10:02:44;;;;;;;16.65;7.75;;;7.40;99.90;;;;;;5113717;28;20035;-65
2023/12/09 10:05:11;;;;;;;9.50;4.82;;;7.30;99.90;;;;;;5114579;28;20100;-65
2023/12/09 10:07:37;;;;;;;11.52;4.60;;;7.30;99.90;;;;;;5114377;28;20079;-65
2023/12/09 10:10:03;;;;;;;9.70;4.25;;;7.30;99.90;;;;;;5132263;28;20416;-65
2023/12/09 10:12:29;;;;;;;10.65;4.50;;;7.30;99.90;;;;;;5114342;28;20047;-65
2023/12/09 10:14:58;;;;;;;13.63;4.10;;;7.40;99.90;;;;;;5114700;28;20050;-66
2023/12/09 10:17:25;;;;;;;13.05;4.18;;;7.40;99.90;;;;;;5113428;28;20031;-65
2023/12/09 10:19:50;;;;;;;12.45;4.53;;;7.40;99.90;;;;;;5114531;28;20120;-65
2023/12/09 10:22:16;;;;;;;10.73;4.10;;;7.40;99.90;;;;;;5114633;28;20428;-66
2023/12/09 10:24:52;;;;;;;8.73;4.47;;;7.50;99.90;;;;;;5096418;28;20480;-65
2023/12/09 10:27:22;;;;;;;16.63;4.32;;;7.50;99.90;;;;;;5114400;28;20043;-65
2023/12/09 10:29:52;;;;;;;11.10;3.70;;;7.50;99.90;;;;;;5114210;28;20118;-66
2023/12/09 10:32:22;;;;;;;15.93;4.13;;;7.50;99.90;;;;;;5113330;28;20168;-65
2023/12/09 10:34:51;;;;;;;9.70;3.95;;;7.50;99.90;;;;;;5114122;28;20079;-67
2023/12/09 10:37:18;;;;;;;9.45;4.10;;;7.50;99.90;;;;;;5114086;28;20114;-66
2023/12/09 10:39:45;;;;;;;9.30;4.03;;;7.60;99.90;;;;;;5113356;28;20043;-66
2023/12/09 10:42:11;;;;;;;12.77;4.03;;;7.60;99.90;;;;;;5113971;28;20054;-66
2023/12/09 10:44:37;;;;;;;11.50;3.28;;;7.60;99.90;;;;;;5114034;28;20039;-65
2023/12/09 10:47:03;;;;;;;10.23;3.75;;;7.60;99.90;;;;;;5096435;27;20057;-65
2023/12/09 10:49:30;;;;;;;13.00;3.78;;;7.60;99.90;;;;;;5100493;27;20088;-65
2023/12/09 10:51:55;;;;;;;10.60;3.38;;;7.60;99.90;;;;;;5117229;27;20051;-65
2023/12/09 10:54:21;;;;;;;9.52;4.20;;;7.70;99.90;;;;;;5117688;27;20084;-65
2023/12/09 10:56:48;;;;;;;10.15;3.67;;;7.60;99.90;;;;;;5117705;27;20104;-65
2023/12/09 10:59:16;;;;;;;11.38;3.15;;;7.70;99.90;;;;;;5116601;27;20126;-65
2023/12/09 11:01:43;;;;;;;9.95;3.80;;;7.70;99.90;;;;;;5117428;27;20050;-66
2023/12/09 11:04:09;;;;;;;13.93;4.18;;;7.70;99.90;;;;;;5117562;27;20039;-66
2023/12/09 11:06:36;;;;;;;12.10;3.53;;;7.70;99.90;;;;;;5116839;27;20049;-65
2023/12/09 11:09:05;;;;;;;9.65;2.92;;;7.70;99.90;;;;;;5118029;27;20035;-66
2023/12/09 11:11:31;;;;;;;8.93;3.10;;;7.70;99.90;;;;;;5135110;27;20436;-65
2023/12/09 11:13:58;;;;;;;12.30;4.32;;;7.70;99.90;;;;;;5116684;27;20171;-65
2023/12/09 11:16:27;;;;;;;14.50;3.25;;;7.70;99.90;;;;;;5117027;27;20031;-65
2023/12/09 11:18:57;;;;;;;7.40;3.67;;;7.70;99.90;;;;;;5100654;27;20070;-65
2023/12/09 11:21:31;;;;;;;9.95;3.22;;;7.70;99.90;;;;;;5116138;27;20046;-65
2023/12/09 11:23:58;;;;;;;5.37;2.30;;;7.70;99.90;;;;;;5097647;27;20043;-65
2023/12/09 11:26:27;;;;;;;11.85;4.05;;;7.70;99.90;;;;;;5124637;27;20614;-66
2023/12/09 11:29:01;;;;;;;10.75;3.10;;;7.70;99.90;;;;;;5088253;27;20050;-65
2023/12/09 11:31:37;;;;;;;6.63;2.75;;;7.70;99.90;;;;;;5114491;27;20067;-66
2023/12/09 11:34:08;;;;;;;14.65;4.35;;;7.80;99.90;;;;;;5101427;28;20089;-66
2023/12/09 11:36:36;;;;;;;7.97;2.80;;;7.80;99.90;;;;;;5103886;27;20036;-66
2023/12/09 11:39:11;;;;;;;19.02;4.10;;;7.80;99.90;;;;;;5111006;27;20084;-66
2023/12/09 11:41:38;;;;;;;;;;;7.80;99.90;;;;;;5108823;27;20049;-66
2023/12/09 11:44:04;;;;;;;6.72;2.10;;;7.80;99.90;;;;;;5113201;27;19969;-66
2023/12/09 11:46:31;;;;;;;10.25;2.80;;;7.80;99.90;;;;;;5111745;27;20039;-65
2023/12/09 11:48:57;;;;;;;7.90;2.58;;;7.80;99.90;;;;;;5113383;27;20054;-64
2023/12/09 11:51:24;;;;;;;9.63;2.65;;;7.80;99.90;;;;;;5113340;27;20039;-64
2023/12/09 11:53:59;;;;;;;7.40;2.92;;;7.80;99.90;;;;;;5097201;27;20375;-64
2023/12/09 11:56:26;;;;;;;7.97;2.85;;;7.90;99.90;;;;;;5113528;27;20051;-64
2023/12/09 11:58:52;;;;;;;8.20;3.50;;;7.80;99.90;;;;;;5112023;27;20512;-64
2023/12/09 12:01:19;;;;;;;9.45;2.83;;;7.80;99.90;;;;;;5096314;27;20038;-64
2023/12/09 12:03:47;;;;;;;8.77;3.20;;;7.80;99.90;;;;;;5110402;27;20046;-64
2023/12/09 12:06:17;;;;;;;12.02;3.15;;;7.80;99.90;;;;;;5103813;27;20042;-64
2023/12/09 12:08:43;;;;;;;9.73;2.83;;;7.80;99.90;;;;;;5130386;27;20039;-64
2023/12/09 12:11:10;;;;;;;6.63;2.55;;;7.80;99.90;;;;;;5112678;27;20070;-64
2023/12/09 12:13:36;;;;;;;9.70;2.78;;;7.80;99.90;;;;;;5126284;27;20043;-64
2023/12/09 12:16:02;;;;;;;7.93;3.05;;;7.80;99.90;;;;;;5131283;27;20452;-64
2023/12/09 12:18:28;;;;;;;7.03;2.67;;;7.90;99.90;;;;;;5131318;27;20063;-65
2023/12/09 12:20:55;;;;;;;8.18;3.13;;;7.80;99.90;;;;;;5114512;27;20460;-64
2023/12/09 12:23:21;;;;;;;6.25;2.72;;;7.90;99.90;;;;;;5095419;27;20050;-65
2023/12/09 12:25:54;;;;;;;7.32;2.63;;;7.90;99.90;;;;;;5110136;27;20027;-64
2023/12/09 12:28:20;;;;;;;7.38;2.70;;;7.90;99.90;;;;;;5101122;27;20043;-64
2023/12/09 12:30:51;;;;;;;9.57;2.70;;;7.90;99.90;;;;;;5112243;27;20049;-65
2023/12/09 12:33:19;;;;;;;7.45;2.50;;;7.90;99.90;;;;;;5095938;27;20100;-65
2023/12/09 12:35:45;;;;;;;7.57;1.95;;;7.90;99.90;;;;;;5112272;27;20039;-65
2023/12/09 12:38:11;;;;;;;8.13;2.33;;;7.90;99.90;;;;;;5112166;27;20394;-65
2023/12/09 12:40:36;;;;;;;7.25;2.38;;;7.90;99.90;;;;;;5112988;27;20099;-65